sensor_id;sensor_type;location;lat;lon;timestamp;P1;durP1;ratioP1;P2;durP2;ratioP2
51010;SDS011;37038;50.182;8.624;2024-03-23T00:55:31;36.22;;;25.15;;
51010;SDS011;37038;50.182;8.624;2024-03-23T00:58:31;37.53;;;24.42;;
51010;SDS011;37038;50.182;8.624;2024-03-23T01:02:07;37.65;;;24.65;;
51010;SDS011;37038;50.182;8.624;2024-03-23T01:05:03;39.60;;;25.92;;
51010;SDS011;37038;50.182;8.624;2024-03-23T01:10:41;39.67;;;26.20;;
51010;SDS011;37038;50.182;8.624;2024-03-23T01:13:57;40.45;;;28.27;;
51010;SDS011;37038;50.182;8.624;2024-03-23T01:17:04;39.78;;;26.50;;
51010;SDS011;37038;50.182;8.624;2024-03-23T01:20:07;41.58;;;27.58;;
51010;SDS011;37038;50.182;8.624;2024-03-23T01:23:10;42.75;;;28.40;;
51010;SDS011;37038;50.182;8.624;2024-03-23T01:26:01;42.75;;;27.30;;
51010;SDS011;37038;50.182;8.624;2024-03-23T01:28:58;41.13;;;27.15;;
51010;SDS011;37038;50.182;8.624;2024-03-23T01:31:48;41.85;;;28.35;;
51010;SDS011;37038;50.182;8.624;2024-03-23T01:38:23;41.42;;;27.08;;
51010;SDS011;37038;50.182;8.624;2024-03-23T01:41:24;43.75;;;27.02;;
51010;SDS011;37038;50.182;8.624;2024-03-23T01:44:15;40.75;;;26.52;;
51010;SDS011;37038;50.182;8.624;2024-03-23T01:47:16;42.20;;;27.63;;
51010;SDS011;37038;50.182;8.624;2024-03-23T01:50:13;43.35;;;27.10;;
51010;SDS011;37038;50.182;8.624;2024-03-23T01:53:31;45.55;;;29.15;;
51010;SDS011;37038;50.182;8.624;2024-03-23T01:56:24;44.40;;;29.73;;
51010;SDS011;37038;50.182;8.624;2024-03-23T01:59:16;37.00;;;26.02;;
51010;SDS011;37038;50.182;8.624;2024-03-23T02:02:38;40.10;;;26.25;;
51010;SDS011;37038;50.182;8.624;2024-03-23T02:05:48;45.20;;;28.92;;
51010;SDS011;37038;50.182;8.624;2024-03-23T02:12:10;41.67;;;28.38;;
51010;SDS011;37038;50.182;8.624;2024-03-23T02:15:20;39.35;;;27.30;;
51010;SDS011;37038;50.182;8.624;2024-03-23T02:18:35;43.47;;;28.48;;
51010;SDS011;37038;50.182;8.624;2024-03-23T02:21:32;46.45;;;29.30;;
51010;SDS011;37038;50.182;8.624;2024-03-23T02:24:28;47.22;;;28.10;;
51010;SDS011;37038;50.182;8.624;2024-03-23T02:28:00;46.10;;;28.65;;
51010;SDS011;37038;50.182;8.624;2024-03-23T02:31:03;38.00;;;26.73;;
51010;SDS011;37038;50.182;8.624;2024-03-23T02:34:05;44.50;;;28.52;;
51010;SDS011;37038;50.182;8.624;2024-03-23T02:37:16;36.60;;;24.45;;
51010;SDS011;37038;50.182;8.624;2024-03-23T02:40:18;36.70;;;25.73;;
51010;SDS011;37038;50.182;8.624;2024-03-23T02:43:12;36.85;;;25.15;;
51010;SDS011;37038;50.182;8.624;2024-03-23T02:46:21;42.03;;;26.73;;
51010;SDS011;37038;50.182;8.624;2024-03-23T02:49:46;39.08;;;26.58;;
51010;SDS011;37038;50.182;8.624;2024-03-23T02:52:50;37.25;;;23.45;;
51010;SDS011;37038;50.182;8.624;2024-03-23T02:56:03;39.40;;;26.25;;
51010;SDS011;37038;50.182;8.624;2024-03-23T02:59:01;38.85;;;24.95;;
51010;SDS011;37038;50.182;8.624;2024-03-23T03:01:52;42.97;;;26.15;;
51010;SDS011;37038;50.182;8.624;2024-03-23T03:04:42;34.53;;;23.63;;
51010;SDS011;37038;50.182;8.624;2024-03-23T03:07:40;33.75;;;24.45;;
51010;SDS011;37038;50.182;8.624;2024-03-23T03:10:31;37.90;;;24.70;;
51010;SDS011;37038;50.182;8.624;2024-03-23T03:13:25;38.53;;;23.92;;
51010;SDS011;37038;50.182;8.624;2024-03-23T03:16:16;31.10;;;23.52;;
51010;SDS011;37038;50.182;8.624;2024-03-23T03:19:04;33.15;;;23.05;;
51010;SDS011;37038;50.182;8.624;2024-03-23T03:22:21;34.42;;;23.00;;
51010;SDS011;37038;50.182;8.624;2024-03-23T03:25:09;33.65;;;22.88;;
51010;SDS011;37038;50.182;8.624;2024-03-23T03:28:06;34.58;;;24.17;;
51010;SDS011;37038;50.182;8.624;2024-03-23T03:30:57;34.20;;;24.38;;
51010;SDS011;37038;50.182;8.624;2024-03-23T03:33:50;35.63;;;25.08;;
51010;SDS011;37038;50.182;8.624;2024-03-23T03:36:47;38.00;;;26.50;;
51010;SDS011;37038;50.182;8.624;2024-03-23T03:39:42;41.17;;;25.08;;
51010;SDS011;37038;50.182;8.624;2024-03-23T03:42:46;38.20;;;25.50;;
51010;SDS011;37038;50.182;8.624;2024-03-23T03:48:42;44.63;;;27.60;;
51010;SDS011;37038;50.182;8.624;2024-03-23T03:51:36;40.95;;;28.23;;
51010;SDS011;37038;50.182;8.624;2024-03-23T04:00:25;45.28;;;27.98;;
51010;SDS011;37038;50.182;8.624;2024-03-23T04:03:13;40.85;;;27.10;;
51010;SDS011;37038;50.182;8.624;2024-03-23T04:06:08;41.92;;;25.65;;
51010;SDS011;37038;50.182;8.624;2024-03-23T04:09:29;40.95;;;26.42;;
51010;SDS011;37038;50.182;8.624;2024-03-23T04:12:42;27.20;;;15.60;;
51010;SDS011;37038;50.182;8.624;2024-03-23T04:16:00;12.00;;;6.78;;
51010;SDS011;37038;50.182;8.624;2024-03-23T04:19:07;10.23;;;5.72;;
51010;SDS011;37038;50.182;8.624;2024-03-23T04:22:37;8.15;;;5.80;;
51010;SDS011;37038;50.182;8.624;2024-03-23T04:25:32;5.85;;;3.63;;
51010;SDS011;37038;50.182;8.624;2024-03-23T04:28:27;6.47;;;4.35;;
51010;SDS011;37038;50.182;8.624;2024-03-23T04:31:22;4.60;;;2.88;;
51010;SDS011;37038;50.182;8.624;2024-03-23T04:34:57;2.40;;;1.60;;
51010;SDS011;37038;50.182;8.624;2024-03-23T04:41:16;1.10;;;1.10;;
51010;SDS011;37038;50.182;8.624;2024-03-23T04:44:23;1.83;;;1.70;;
51010;SDS011;37038;50.182;8.624;2024-03-23T04:47:10;2.17;;;1.70;;
51010;SDS011;37038;50.182;8.624;2024-03-23T04:50:00;2.03;;;1.75;;
51010;SDS011;37038;50.182;8.624;2024-03-23T04:52:50;1.70;;;1.30;;
51010;SDS011;37038;50.182;8.624;2024-03-23T04:55:46;1.45;;;1.35;;
51010;SDS011;37038;50.182;8.624;2024-03-23T04:58:41;1.70;;;1.40;;
51010;SDS011;37038;50.182;8.624;2024-03-23T05:01:40;1.20;;;1.20;;
51010;SDS011;37038;50.182;8.624;2024-03-23T05:04:38;2.63;;;1.55;;
51010;SDS011;37038;50.182;8.624;2024-03-23T05:07:43;1.50;;;1.40;;
51010;SDS011;37038;50.182;8.624;2024-03-23T05:11:08;1.45;;;1.35;;
51010;SDS011;37038;50.182;8.624;2024-03-23T05:14:26;2.60;;;1.88;;
51010;SDS011;37038;50.182;8.624;2024-03-23T05:17:41;3.90;;;2.25;;
51010;SDS011;37038;50.182;8.624;2024-03-23T05:20:48;1.75;;;1.65;;
51010;SDS011;37038;50.182;8.624;2024-03-23T05:29:46;3.60;;;2.60;;
51010;SDS011;37038;50.182;8.624;2024-03-23T05:32:39;1.90;;;1.70;;
51010;SDS011;37038;50.182;8.624;2024-03-23T05:35:55;1.95;;;1.33;;
51010;SDS011;37038;50.182;8.624;2024-03-23T05:38:55;2.00;;;1.90;;
51010;SDS011;37038;50.182;8.624;2024-03-23T05:42:02;2.58;;;1.50;;
51010;SDS011;37038;50.182;8.624;2024-03-23T05:44:55;1.65;;;1.30;;
51010;SDS011;37038;50.182;8.624;2024-03-23T05:47:56;3.83;;;2.20;;
51010;SDS011;37038;50.182;8.624;2024-03-23T05:51:02;2.40;;;2.20;;
51010;SDS011;37038;50.182;8.624;2024-03-23T05:54:07;1.75;;;1.40;;
51010;SDS011;37038;50.182;8.624;2024-03-23T05:57:04;1.35;;;1.23;;
51010;SDS011;37038;50.182;8.624;2024-03-23T06:00:16;1.20;;;1.10;;
51010;SDS011;37038;50.182;8.624;2024-03-23T06:03:09;1.10;;;1.00;;
51010;SDS011;37038;50.182;8.624;2024-03-23T06:05:59;1.30;;;1.20;;
51010;SDS011;37038;50.182;8.624;2024-03-23T06:09:03;1.25;;;1.15;;
51010;SDS011;37038;50.182;8.624;2024-03-23T06:12:01;1.65;;;1.10;;
51010;SDS011;37038;50.182;8.624;2024-03-23T06:14:51;0.90;;;0.90;;
51010;SDS011;37038;50.182;8.624;2024-03-23T06:17:38;2.25;;;0.98;;
51010;SDS011;37038;50.182;8.624;2024-03-23T06:20:27;1.30;;;0.90;;
51010;SDS011;37038;50.182;8.624;2024-03-23T06:23:25;1.63;;;1.30;;
51010;SDS011;37038;50.182;8.624;2024-03-23T06:26:12;0.93;;;0.93;;
51010;SDS011;37038;50.182;8.624;2024-03-23T06:32:23;0.80;;;0.80;;
51010;SDS011;37038;50.182;8.624;2024-03-23T06:35:15;0.90;;;0.90;;
51010;SDS011;37038;50.182;8.624;2024-03-23T06:38:05;1.08;;;1.08;;
51010;SDS011;37038;50.182;8.624;2024-03-23T06:41:04;1.10;;;1.10;;
51010;SDS011;37038;50.182;8.624;2024-03-23T06:44:02;1.00;;;1.00;;
51010;SDS011;37038;50.182;8.624;2024-03-23T06:50:10;1.13;;;0.93;;
51010;SDS011;37038;50.182;8.624;2024-03-23T06:52:57;0.90;;;0.90;;
51010;SDS011;37038;50.182;8.624;2024-03-23T06:59:07;2.67;;;1.20;;
51010;SDS011;37038;50.182;8.624;2024-03-23T07:02:27;2.30;;;1.35;;
51010;SDS011;37038;50.182;8.624;2024-03-23T07:05:31;1.50;;;1.40;;
51010;SDS011;37038;50.182;8.624;2024-03-23T07:09:03;1.85;;;1.33;;
51010;SDS011;37038;50.182;8.624;2024-03-23T07:11:59;4.25;;;1.70;;
51010;SDS011;37038;50.182;8.624;2024-03-23T07:15:15;4.38;;;2.15;;
51010;SDS011;37038;50.182;8.624;2024-03-23T07:18:28;3.75;;;1.80;;
51010;SDS011;37038;50.182;8.624;2024-03-23T07:21:33;4.60;;;2.30;;
51010;SDS011;37038;50.182;8.624;2024-03-23T07:24:33;4.60;;;2.30;;
51010;SDS011;37038;50.182;8.624;2024-03-23T07:27:20;4.97;;;2.55;;
51010;SDS011;37038;50.182;8.624;2024-03-23T07:34:48;8.60;;;2.70;;
51010;SDS011;37038;50.182;8.624;2024-03-23T07:37:57;5.07;;;2.63;;
51010;SDS011;37038;50.182;8.624;2024-03-23T07:47:37;6.35;;;2.55;;
51010;SDS011;37038;50.182;8.624;2024-03-23T07:50:29;7.30;;;3.10;;
51010;SDS011;37038;50.182;8.624;2024-03-23T07:53:19;6.75;;;3.38;;
51010;SDS011;37038;50.182;8.624;2024-03-23T07:56:15;13.13;;;4.68;;
51010;SDS011;37038;50.182;8.624;2024-03-23T08:02:33;11.73;;;6.03;;
51010;SDS011;37038;50.182;8.624;2024-03-23T08:08:42;12.95;;;5.40;;
51010;SDS011;37038;50.182;8.624;2024-03-23T08:12:10;7.82;;;4.68;;
51010;SDS011;37038;50.182;8.624;2024-03-23T08:15:44;12.68;;;4.68;;
51010;SDS011;37038;50.182;8.624;2024-03-23T08:18:52;13.23;;;5.43;;
51010;SDS011;37038;50.182;8.624;2024-03-23T08:22:03;12.40;;;6.05;;
51010;SDS011;37038;50.182;8.624;2024-03-23T08:24:50;8.98;;;6.50;;
51010;SDS011;37038;50.182;8.624;2024-03-23T08:28:51;12.68;;;7.10;;
51010;SDS011;37038;50.182;8.624;2024-03-23T08:32:06;16.90;;;8.32;;
51010;SDS011;37038;50.182;8.624;2024-03-23T08:35:08;11.82;;;7.57;;
51010;SDS011;37038;50.182;8.624;2024-03-23T08:45:30;12.98;;;5.82;;
51010;SDS011;37038;50.182;8.624;2024-03-23T08:48:41;14.27;;;8.30;;
51010;SDS011;37038;50.182;8.624;2024-03-23T08:51:43;13.82;;;7.63;;
51010;SDS011;37038;50.182;8.624;2024-03-23T08:58:10;14.35;;;6.88;;
51010;SDS011;37038;50.182;8.624;2024-03-23T09:01:11;15.57;;;7.50;;
51010;SDS011;37038;50.182;8.624;2024-03-23T09:04:09;13.00;;;6.85;;
51010;SDS011;37038;50.182;8.624;2024-03-23T09:07:31;11.68;;;5.72;;
51010;SDS011;37038;50.182;8.624;2024-03-23T09:10:18;10.65;;;6.32;;
51010;SDS011;37038;50.182;8.624;2024-03-23T09:13:22;13.65;;;5.90;;
51010;SDS011;37038;50.182;8.624;2024-03-23T09:16:15;12.07;;;6.60;;
51010;SDS011;37038;50.182;8.624;2024-03-23T09:19:06;13.05;;;6.32;;
51010;SDS011;37038;50.182;8.624;2024-03-23T09:26:02;9.98;;;5.20;;
51010;SDS011;37038;50.182;8.624;2024-03-23T09:28:50;18.58;;;6.32;;
51010;SDS011;37038;50.182;8.624;2024-03-23T09:31:37;13.65;;;6.82;;
51010;SDS011;37038;50.182;8.624;2024-03-23T09:34:24;12.95;;;5.20;;
51010;SDS011;37038;50.182;8.624;2024-03-23T09:37:13;18.50;;;6.65;;
51010;SDS011;37038;50.182;8.624;2024-03-23T09:40:00;17.50;;;6.30;;
51010;SDS011;37038;50.182;8.624;2024-03-23T09:42:50;14.48;;;5.25;;
51010;SDS011;37038;50.182;8.624;2024-03-23T09:45:40;18.45;;;5.70;;
51010;SDS011;37038;50.182;8.624;2024-03-23T09:48:28;12.95;;;5.78;;
51010;SDS011;37038;50.182;8.624;2024-03-23T09:51:19;14.68;;;5.25;;
51010;SDS011;37038;50.182;8.624;2024-03-23T09:54:06;11.35;;;4.70;;
51010;SDS011;37038;50.182;8.624;2024-03-23T09:56:53;14.15;;;4.38;;
51010;SDS011;37038;50.182;8.624;2024-03-23T09:59:40;9.70;;;4.20;;
51010;SDS011;37038;50.182;8.624;2024-03-23T10:02:29;10.82;;;4.07;;
51010;SDS011;37038;50.182;8.624;2024-03-23T10:05:22;12.50;;;5.95;;
51010;SDS011;37038;50.182;8.624;2024-03-23T10:11:15;10.35;;;3.42;;
51010;SDS011;37038;50.182;8.624;2024-03-23T10:14:03;14.13;;;4.30;;
51010;SDS011;37038;50.182;8.624;2024-03-23T10:16:49;12.43;;;3.60;;
51010;SDS011;37038;50.182;8.624;2024-03-23T10:19:38;13.02;;;4.03;;
51010;SDS011;37038;50.182;8.624;2024-03-23T10:22:28;10.50;;;3.78;;
51010;SDS011;37038;50.182;8.624;2024-03-23T10:25:26;10.93;;;3.08;;
51010;SDS011;37038;50.182;8.624;2024-03-23T10:28:13;9.77;;;3.22;;
51010;SDS011;37038;50.182;8.624;2024-03-23T10:31:00;10.85;;;3.17;;
51010;SDS011;37038;50.182;8.624;2024-03-23T10:33:59;6.88;;;2.70;;
51010;SDS011;37038;50.182;8.624;2024-03-23T10:36:47;11.82;;;3.25;;
51010;SDS011;37038;50.182;8.624;2024-03-23T10:39:38;9.93;;;3.08;;
51010;SDS011;37038;50.182;8.624;2024-03-23T10:42:26;7.70;;;3.13;;
51010;SDS011;37038;50.182;8.624;2024-03-23T10:45:13;5.53;;;2.42;;
51010;SDS011;37038;50.182;8.624;2024-03-23T10:48:04;6.35;;;2.35;;
51010;SDS011;37038;50.182;8.624;2024-03-23T10:50:57;9.07;;;2.72;;
51010;SDS011;37038;50.182;8.624;2024-03-23T10:53:44;8.50;;;2.88;;
51010;SDS011;37038;50.182;8.624;2024-03-23T10:56:32;9.15;;;3.30;;
51010;SDS011;37038;50.182;8.624;2024-03-23T10:59:22;7.57;;;3.40;;
51010;SDS011;37038;50.182;8.624;2024-03-23T11:02:19;12.80;;;3.35;;
51010;SDS011;37038;50.182;8.624;2024-03-23T11:05:33;10.10;;;3.95;;
51010;SDS011;37038;50.182;8.624;2024-03-23T11:08:35;9.05;;;4.13;;
51010;SDS011;37038;50.182;8.624;2024-03-23T11:11:25;15.60;;;4.20;;
51010;SDS011;37038;50.182;8.624;2024-03-23T11:14:21;8.70;;;4.15;;
51010;SDS011;37038;50.182;8.624;2024-03-23T11:17:12;6.53;;;2.67;;
51010;SDS011;37038;50.182;8.624;2024-03-23T11:20:05;6.63;;;2.60;;
51010;SDS011;37038;50.182;8.624;2024-03-23T11:22:55;4.38;;;2.88;;
51010;SDS011;37038;50.182;8.624;2024-03-23T11:25:46;5.68;;;2.25;;
51010;SDS011;37038;50.182;8.624;2024-03-23T11:28:33;5.68;;;2.72;;
51010;SDS011;37038;50.182;8.624;2024-03-23T11:31:20;9.80;;;3.15;;
51010;SDS011;37038;50.182;8.624;2024-03-23T11:34:08;9.95;;;3.10;;
51010;SDS011;37038;50.182;8.624;2024-03-23T11:37:04;9.82;;;3.13;;
51010;SDS011;37038;50.182;8.624;2024-03-23T11:39:53;10.18;;;3.65;;
51010;SDS011;37038;50.182;8.624;2024-03-23T11:42:46;13.48;;;4.20;;
51010;SDS011;37038;50.182;8.624;2024-03-23T11:45:50;9.18;;;3.65;;
51010;SDS011;37038;50.182;8.624;2024-03-23T11:48:49;8.70;;;3.35;;
51010;SDS011;37038;50.182;8.624;2024-03-23T11:51:39;10.13;;;4.35;;
51010;SDS011;37038;50.182;8.624;2024-03-23T11:57:30;7.55;;;3.92;;
51010;SDS011;37038;50.182;8.624;2024-03-23T12:00:23;12.60;;;4.68;;
51010;SDS011;37038;50.182;8.624;2024-03-23T12:03:10;13.85;;;4.22;;
51010;SDS011;37038;50.182;8.624;2024-03-23T12:05:58;7.80;;;4.10;;
51010;SDS011;37038;50.182;8.624;2024-03-23T12:08:55;11.43;;;4.35;;
51010;SDS011;37038;50.182;8.624;2024-03-23T12:12:04;12.50;;;4.68;;
51010;SDS011;37038;50.182;8.624;2024-03-23T12:15:01;8.50;;;4.53;;
51010;SDS011;37038;50.182;8.624;2024-03-23T12:17:52;10.70;;;4.45;;
51010;SDS011;37038;50.182;8.624;2024-03-23T12:20:54;9.43;;;4.25;;
51010;SDS011;37038;50.182;8.624;2024-03-23T12:23:42;9.05;;;4.65;;
51010;SDS011;37038;50.182;8.624;2024-03-23T12:26:36;8.75;;;4.43;;
51010;SDS011;37038;50.182;8.624;2024-03-23T12:29:28;6.63;;;3.88;;
51010;SDS011;37038;50.182;8.624;2024-03-23T12:32:18;8.82;;;3.97;;
51010;SDS011;37038;50.182;8.624;2024-03-23T12:35:05;10.15;;;4.03;;
51010;SDS011;37038;50.182;8.624;2024-03-23T12:38:04;7.82;;;3.72;;
51010;SDS011;37038;50.182;8.624;2024-03-23T12:40:54;7.47;;;3.40;;
51010;SDS011;37038;50.182;8.624;2024-03-23T12:43:47;6.57;;;3.70;;
51010;SDS011;37038;50.182;8.624;2024-03-23T12:46:38;8.18;;;3.80;;
51010;SDS011;37038;50.182;8.624;2024-03-23T12:49:33;7.88;;;3.75;;
51010;SDS011;37038;50.182;8.624;2024-03-23T12:52:22;9.98;;;4.35;;
51010;SDS011;37038;50.182;8.624;2024-03-23T12:55:17;6.90;;;3.00;;
51010;SDS011;37038;50.182;8.624;2024-03-23T12:58:04;6.25;;;2.88;;
51010;SDS011;37038;50.182;8.624;2024-03-23T13:00:51;4.40;;;2.60;;
51010;SDS011;37038;50.182;8.624;2024-03-23T13:03:38;7.05;;;2.78;;
51010;SDS011;37038;50.182;8.624;2024-03-23T13:06:27;7.10;;;2.78;;
51010;SDS011;37038;50.182;8.624;2024-03-23T13:09:22;12.20;;;3.28;;
51010;SDS011;37038;50.182;8.624;2024-03-23T13:12:12;7.47;;;3.78;;
51010;SDS011;37038;50.182;8.624;2024-03-23T13:15:02;6.93;;;2.72;;
51010;SDS011;37038;50.182;8.624;2024-03-23T13:17:49;4.30;;;2.20;;
51010;SDS011;37038;50.182;8.624;2024-03-23T13:20:38;2.03;;;1.75;;
51010;SDS011;37038;50.182;8.624;2024-03-23T13:23:28;3.15;;;2.13;;
51010;SDS011;37038;50.182;8.624;2024-03-23T13:26:18;5.63;;;2.70;;
51010;SDS011;37038;50.182;8.624;2024-03-23T13:29:05;6.15;;;2.38;;
51010;SDS011;37038;50.182;8.624;2024-03-23T13:31:52;1.40;;;1.30;;
51010;SDS011;37038;50.182;8.624;2024-03-23T13:34:39;0.95;;;0.95;;
51010;SDS011;37038;50.182;8.624;2024-03-23T13:37:26;2.08;;;1.42;;
51010;SDS011;37038;50.182;8.624;2024-03-23T13:40:13;1.33;;;1.20;;
51010;SDS011;37038;50.182;8.624;2024-03-23T13:43:00;1.25;;;1.15;;
51010;SDS011;37038;50.182;8.624;2024-03-23T13:45:47;1.35;;;0.93;;
51010;SDS011;37038;50.182;8.624;2024-03-23T13:48:35;2.53;;;0.88;;
51010;SDS011;37038;50.182;8.624;2024-03-23T13:51:25;2.33;;;1.10;;
51010;SDS011;37038;50.182;8.624;2024-03-23T13:54:15;1.40;;;1.30;;
51010;SDS011;37038;50.182;8.624;2024-03-23T13:57:06;0.60;;;0.60;;
51010;SDS011;37038;50.182;8.624;2024-03-23T14:00:06;1.10;;;1.00;;
51010;SDS011;37038;50.182;8.624;2024-03-23T14:02:59;1.20;;;1.10;;
51010;SDS011;37038;50.182;8.624;2024-03-23T14:05:46;10.65;;;1.60;;
51010;SDS011;37038;50.182;8.624;2024-03-23T14:08:37;1.48;;;1.20;;
51010;SDS011;37038;50.182;8.624;2024-03-23T14:11:32;1.77;;;1.48;;
51010;SDS011;37038;50.182;8.624;2024-03-23T14:14:24;1.65;;;1.35;;
51010;SDS011;37038;50.182;8.624;2024-03-23T14:17:16;1.25;;;1.15;;
51010;SDS011;37038;50.182;8.624;2024-03-23T14:20:05;3.95;;;1.60;;
51010;SDS011;37038;50.182;8.624;2024-03-23T14:22:57;1.88;;;1.23;;
51010;SDS011;37038;50.182;8.624;2024-03-23T14:25:57;5.13;;;1.65;;
51010;SDS011;37038;50.182;8.624;2024-03-23T14:28:44;3.25;;;1.30;;
51010;SDS011;37038;50.182;8.624;2024-03-23T14:31:32;1.42;;;1.08;;
51010;SDS011;37038;50.182;8.624;2024-03-23T14:34:19;1.35;;;1.17;;
51010;SDS011;37038;50.182;8.624;2024-03-23T14:37:06;3.20;;;1.05;;
51010;SDS011;37038;50.182;8.624;2024-03-23T14:39:53;1.80;;;1.08;;
51010;SDS011;37038;50.182;8.624;2024-03-23T14:42:41;2.33;;;1.20;;
51010;SDS011;37038;50.182;8.624;2024-03-23T14:45:28;1.92;;;1.15;;
51010;SDS011;37038;50.182;8.624;2024-03-23T14:48:15;1.20;;;0.90;;
51010;SDS011;37038;50.182;8.624;2024-03-23T14:51:02;1.20;;;1.10;;
51010;SDS011;37038;50.182;8.624;2024-03-23T14:53:52;2.05;;;1.15;;
51010;SDS011;37038;50.182;8.624;2024-03-23T14:56:46;2.85;;;1.25;;
51010;SDS011;37038;50.182;8.624;2024-03-23T14:59:33;1.63;;;1.35;;
51010;SDS011;37038;50.182;8.624;2024-03-23T15:02:23;1.60;;;1.13;;
51010;SDS011;37038;50.182;8.624;2024-03-23T15:05:10;2.63;;;1.10;;
51010;SDS011;37038;50.182;8.624;2024-03-23T15:07:58;2.50;;;1.15;;
51010;SDS011;37038;50.182;8.624;2024-03-23T15:10:45;2.05;;;1.20;;
51010;SDS011;37038;50.182;8.624;2024-03-23T15:13:35;2.95;;;1.35;;
51010;SDS011;37038;50.182;8.624;2024-03-23T15:16:22;3.08;;;1.50;;
51010;SDS011;37038;50.182;8.624;2024-03-23T15:19:09;2.47;;;1.30;;
51010;SDS011;37038;50.182;8.624;2024-03-23T15:21:56;5.20;;;1.50;;
51010;SDS011;37038;50.182;8.624;2024-03-23T15:24:43;3.30;;;1.50;;
51010;SDS011;37038;50.182;8.624;2024-03-23T15:27:32;1.20;;;1.08;;
51010;SDS011;37038;50.182;8.624;2024-03-23T15:30:19;1.55;;;1.13;;
51010;SDS011;37038;50.182;8.624;2024-03-23T15:33:06;2.50;;;1.38;;
51010;SDS011;37038;50.182;8.624;2024-03-23T15:35:53;1.48;;;1.38;;
51010;SDS011;37038;50.182;8.624;2024-03-23T15:38:40;2.63;;;1.45;;
51010;SDS011;37038;50.182;8.624;2024-03-23T15:41:35;6.57;;;2.28;;
51010;SDS011;37038;50.182;8.624;2024-03-23T15:44:25;3.90;;;1.73;;
51010;SDS011;37038;50.182;8.624;2024-03-23T15:47:14;2.17;;;1.23;;
51010;SDS011;37038;50.182;8.624;2024-03-23T15:50:00;1.88;;;1.52;;
51010;SDS011;37038;50.182;8.624;2024-03-23T15:52:49;3.75;;;1.83;;
51010;SDS011;37038;50.182;8.624;2024-03-23T15:55:36;2.78;;;1.83;;
51010;SDS011;37038;50.182;8.624;2024-03-23T15:58:31;3.42;;;1.60;;
51010;SDS011;37038;50.182;8.624;2024-03-23T16:01:19;4.15;;;2.20;;
51010;SDS011;37038;50.182;8.624;2024-03-23T16:04:09;4.50;;;1.70;;
51010;SDS011;37038;50.182;8.624;2024-03-23T16:07:00;5.55;;;1.70;;
51010;SDS011;37038;50.182;8.624;2024-03-23T16:09:54;3.25;;;1.83;;
51010;SDS011;37038;50.182;8.624;2024-03-23T16:12:45;4.53;;;1.85;;
51010;SDS011;37038;50.182;8.624;2024-03-23T16:20:35;1.98;;;1.65;;
51010;SDS011;37038;50.182;8.624;2024-03-23T16:23:37;4.40;;;1.73;;
51010;SDS011;37038;50.182;8.624;2024-03-23T16:26:52;3.15;;;1.60;;
51010;SDS011;37038;50.182;8.624;2024-03-23T16:30:10;1.88;;;1.70;;
51010;SDS011;37038;50.182;8.624;2024-03-23T16:32:57;7.80;;;2.22;;
51010;SDS011;37038;50.182;8.624;2024-03-23T16:36:06;4.10;;;2.00;;
51010;SDS011;37038;50.182;8.624;2024-03-23T16:39:00;1.55;;;1.38;;
51010;SDS011;37038;50.182;8.624;2024-03-23T16:41:47;3.15;;;1.63;;
51010;SDS011;37038;50.182;8.624;2024-03-23T16:44:43;3.75;;;1.50;;
51010;SDS011;37038;50.182;8.624;2024-03-23T16:47:35;1.83;;;1.50;;
51010;SDS011;37038;50.182;8.624;2024-03-23T16:50:46;2.38;;;1.50;;
51010;SDS011;37038;50.182;8.624;2024-03-23T16:53:51;1.50;;;1.40;;
51010;SDS011;37038;50.182;8.624;2024-03-23T16:56:51;3.63;;;1.50;;
51010;SDS011;37038;50.182;8.624;2024-03-23T17:02:51;2.53;;;2.13;;
51010;SDS011;37038;50.182;8.624;2024-03-23T17:05:41;4.32;;;1.90;;
51010;SDS011;37038;50.182;8.624;2024-03-23T17:08:30;3.20;;;1.75;;
51010;SDS011;37038;50.182;8.624;2024-03-23T17:11:33;1.80;;;1.70;;
51010;SDS011;37038;50.182;8.624;2024-03-23T17:14:30;4.22;;;2.00;;
51010;SDS011;37038;50.182;8.624;2024-03-23T17:17:17;2.83;;;1.77;;
51010;SDS011;37038;50.182;8.624;2024-03-23T17:20:07;5.53;;;2.00;;
51010;SDS011;37038;50.182;8.624;2024-03-23T17:22:56;5.60;;;2.30;;
51010;SDS011;37038;50.182;8.624;2024-03-23T17:25:43;2.70;;;2.00;;
51010;SDS011;37038;50.182;8.624;2024-03-23T17:28:38;2.60;;;1.85;;
51010;SDS011;37038;50.182;8.624;2024-03-23T17:31:31;5.60;;;2.05;;
51010;SDS011;37038;50.182;8.624;2024-03-23T17:34:20;3.45;;;2.03;;
51010;SDS011;37038;50.182;8.624;2024-03-23T17:37:09;1.92;;;1.80;;
51010;SDS011;37038;50.182;8.624;2024-03-23T17:39:57;3.33;;;1.88;;
51010;SDS011;37038;50.182;8.624;2024-03-23T17:42:44;1.45;;;1.20;;
51010;SDS011;37038;50.182;8.624;2024-03-23T17:45:36;1.23;;;1.13;;
51010;SDS011;37038;50.182;8.624;2024-03-23T17:51:51;1.25;;;1.02;;
51010;SDS011;37038;50.182;8.624;2024-03-23T17:54:43;1.23;;;0.95;;
51010;SDS011;37038;50.182;8.624;2024-03-23T17:57:51;1.27;;;1.23;;
51010;SDS011;37038;50.182;8.624;2024-03-23T18:00:38;5.00;;;2.40;;
51010;SDS011;37038;50.182;8.624;2024-03-23T18:06:41;3.20;;;2.78;;
51010;SDS011;37038;50.182;8.624;2024-03-23T18:09:35;1.35;;;1.17;;
51010;SDS011;37038;50.182;8.624;2024-03-23T18:12:54;3.17;;;1.80;;
51010;SDS011;37038;50.182;8.624;2024-03-23T18:16:07;4.80;;;1.50;;
51010;SDS011;37038;50.182;8.624;2024-03-23T18:19:32;8.32;;;2.50;;
51010;SDS011;37038;50.182;8.624;2024-03-23T18:23:03;6.15;;;2.70;;
51010;SDS011;37038;50.182;8.624;2024-03-23T18:26:01;2.30;;;1.87;;
51010;SDS011;37038;50.182;8.624;2024-03-23T18:29:01;2.50;;;1.70;;
51010;SDS011;37038;50.182;8.624;2024-03-23T18:32:07;1.95;;;1.50;;
51010;SDS011;37038;50.182;8.624;2024-03-23T18:35:03;4.43;;;2.08;;
51010;SDS011;37038;50.182;8.624;2024-03-23T18:37:54;2.85;;;1.73;;
51010;SDS011;37038;50.182;8.624;2024-03-23T18:40:47;3.28;;;1.50;;
51010;SDS011;37038;50.182;8.624;2024-03-23T18:43:37;4.95;;;2.10;;
51010;SDS011;37038;50.182;8.624;2024-03-23T18:46:40;2.58;;;2.20;;
51010;SDS011;37038;50.182;8.624;2024-03-23T18:49:36;8.55;;;2.38;;
51010;SDS011;37038;50.182;8.624;2024-03-23T18:52:33;4.53;;;2.17;;
51010;SDS011;37038;50.182;8.624;2024-03-23T18:55:24;7.82;;;2.60;;
51010;SDS011;37038;50.182;8.624;2024-03-23T18:58:13;1.92;;;1.73;;
51010;SDS011;37038;50.182;8.624;2024-03-23T19:01:05;4.00;;;1.90;;
51010;SDS011;37038;50.182;8.624;2024-03-23T19:03:55;3.05;;;1.60;;
51010;SDS011;37038;50.182;8.624;2024-03-23T19:06:52;3.60;;;1.80;;
51010;SDS011;37038;50.182;8.624;2024-03-23T19:09:39;3.60;;;1.88;;
51010;SDS011;37038;50.182;8.624;2024-03-23T19:12:30;1.88;;;1.60;;
51010;SDS011;37038;50.182;8.624;2024-03-23T19:15:22;4.25;;;2.10;;
51010;SDS011;37038;50.182;8.624;2024-03-23T19:18:19;5.78;;;2.03;;
51010;SDS011;37038;50.182;8.624;2024-03-23T19:21:07;5.05;;;2.05;;
51010;SDS011;37038;50.182;8.624;2024-03-23T19:23:56;5.63;;;3.28;;
51010;SDS011;37038;50.182;8.624;2024-03-23T19:26:49;5.32;;;2.80;;
51010;SDS011;37038;50.182;8.624;2024-03-23T19:29:36;10.02;;;2.75;;
51010;SDS011;37038;50.182;8.624;2024-03-23T19:32:23;4.28;;;2.60;;
51010;SDS011;37038;50.182;8.624;2024-03-23T19:35:13;3.35;;;2.17;;
51010;SDS011;37038;50.182;8.624;2024-03-23T19:38:03;7.03;;;3.00;;
51010;SDS011;37038;50.182;8.624;2024-03-23T19:40:54;5.15;;;2.85;;
51010;SDS011;37038;50.182;8.624;2024-03-23T19:43:44;6.35;;;2.75;;
51010;SDS011;37038;50.182;8.624;2024-03-23T19:46:34;7.43;;;2.97;;
51010;SDS011;37038;50.182;8.624;2024-03-23T19:49:25;4.90;;;2.90;;
51010;SDS011;37038;50.182;8.624;2024-03-23T19:52:16;5.55;;;2.60;;
51010;SDS011;37038;50.182;8.624;2024-03-23T19:55:03;5.93;;;2.65;;
51010;SDS011;37038;50.182;8.624;2024-03-23T19:57:51;4.80;;;2.55;;